Terminal Aerodrome Forecast
Issued by NWS Jackson, KY

Home | Current Version | Previous Version | Text Only | Print | Product List | Glossary On
Versions: 1 2 3 4 5 6 7 8 9 10 11 12 13 14 15 16 17 18
000
FTUS43 KJKL 290500
TAFJKL
TAF
KJKL 290535Z 2906/3006 00000KT P6SM SKC
     FM290900 00000KT 4SM BR SKC
     FM291300 VRB03KT P6SM SKC
     FM292200 VRB03KT P6SM VCTS SCT050CB=

USA.gov is the U.S. government's official web portal to all federal, state and local government web resources and services.